Time;durP1;ratioP1;P1;durP2;ratioP2;P2;SDS_P1;SDS_P2;PMS_P1;PMS_P2;Temp;Humidity;BMP_temperature;BMP_pressure;BME280_temperature;BME280_humidity;BME280_pressure;Samples;Min_cycle;Max_cycle;Signal;HPM_P1;HPM_P2
2023/08/12 00:01:50;;;;;;;5.60;2.50;;;;;;;;;;4897200;28;20426;-72
2023/08/12 00:04:16;;;;;;;3.30;3.10;;;;;;;;;;4896808;29;20476;-72
2023/08/12 00:06:42;;;;;;;6.43;2.57;;;;;;;;;;4897176;28;20429;-71
2023/08/12 00:09:08;;;;;;;4.57;2.77;;;;;;;;;;4896833;28;20906;-68
2023/08/12 00:11:37;;;;;;;10.63;2.57;;;;;;;;;;4897018;28;21005;-68
2023/08/12 00:14:04;;;;;;;5.33;3.10;;;;;;;;;;4896709;28;20432;-72
2023/08/12 00:16:30;;;;;;;2.47;2.37;;;;;;;;;;4896929;29;20437;-70
2023/08/12 00:18:56;;;;;;;2.53;2.50;;;;;;;;;;4896954;28;20553;-72
2023/08/12 00:21:22;;;;;;;3.97;2.47;;;;;;;;;;4896929;29;20517;-72
2023/08/12 00:23:49;;;;;;;2.60;2.40;;;;;;;;;;4896295;29;20425;-72
2023/08/12 00:26:15;;;;;;;3.07;3.03;;;;;;;;;;4895846;28;20934;-73
2023/08/12 00:28:42;;;;;;;2.57;2.37;;;;;;;;;;4896836;28;20523;-72
2023/08/12 00:31:07;;;;;;;5.17;4.10;;;;;;;;;;4896843;28;20627;-72
2023/08/12 00:33:34;;;;;;;2.50;2.50;;;;;;;;;;4896386;29;20517;-72
2023/08/12 00:36:00;;;;;;;3.10;2.90;;;;;;;;;;4896779;29;20434;-73
2023/08/12 00:38:26;;;;;;;4.63;2.70;;;;;;;;;;4896367;28;20422;-71
2023/08/12 00:40:52;;;;;;;3.23;3.13;;;;;;;;;;4895460;29;20441;-71
2023/08/12 00:43:18;;;;;;;4.87;2.83;;;;;;;;;;4896331;28;20513;-72
2023/08/12 00:45:44;;;;;;;4.83;2.60;;;;;;;;;;4896640;28;20774;-72
2023/08/12 00:48:11;;;;;;;3.17;2.97;;;;;;;;;;4896695;29;20426;-69
2023/08/12 00:50:37;;;;;;;4.77;2.53;;;;;;;;;;4896358;28;20473;-71
2023/08/12 00:53:05;;;;;;;3.20;3.10;;;;;;;;;;4895796;28;20462;-70
2023/08/12 00:55:32;;;;;;;3.00;2.40;;;;;;;;;;4896485;28;20426;-71
2023/08/12 00:57:58;;;;;;;3.30;3.00;;;;;;;;;;4896435;28;20484;-69
2023/08/12 01:00:24;;;;;;;3.13;2.93;;;;;;;;;;4896324;29;20488;-69
2023/08/12 01:02:51;;;;;;;2.87;2.67;;;;;;;;;;4895962;28;20525;-70
2023/08/12 01:05:18;;;;;;;3.50;3.40;;;;;;;;;;4896626;28;20421;-71
2023/08/12 01:07:45;;;;;;;3.50;2.60;;;;;;;;;;4895995;29;20484;-71
2023/08/12 01:10:14;;;;;;;4.30;3.40;;;;;;;;;;4895017;28;20444;-70
2023/08/12 01:12:50;;;;;;;5.27;3.90;;;;;;;;;;4895881;28;20429;-69
2023/08/12 01:15:17;;;;;;;3.80;3.60;;;;;;;;;;4896210;28;20426;-72
2023/08/12 01:17:43;;;;;;;3.60;3.30;;;;;;;;;;4896093;29;20473;-68
2023/08/12 01:20:12;;;;;;;5.53;3.87;;;;;;;;;;4896113;28;20929;-72
2023/08/12 01:22:41;;;;;;;4.37;3.70;;;;;;;;;;4895432;28;20480;-71
2023/08/12 01:25:09;;;;;;;6.23;4.07;;;;;;;;;;4895988;28;20425;-73
2023/08/12 01:27:36;;;;;;;3.50;3.20;;;;;;;;;;4896003;28;20437;-68
2023/08/12 01:30:05;;;;;;;2.80;2.70;;;;;;;;;;4896043;28;20422;-72
2023/08/12 01:32:31;;;;;;;2.90;2.80;;;;;;;;;;4895547;28;20445;-68
2023/08/12 01:35:12;;;;;;;3.03;2.87;;;;;;;;;;4896028;29;20425;-68
2023/08/12 01:37:38;;;;;;;2.47;2.27;;;;;;;;;;4895271;28;20430;-71
2023/08/12 01:40:05;;;;;;;5.90;2.47;;;;;;;;;;4895769;28;20525;-72
2023/08/12 01:42:33;;;;;;;2.70;2.70;;;;;;;;;;4894263;28;20568;-69
2023/08/12 01:45:01;;;;;;;2.27;2.27;;;;;;;;;;4895679;28;20436;-69
2023/08/12 01:47:27;;;;;;;1.80;1.80;;;;;;;;;;4895699;28;20430;-73
2023/08/12 01:49:52;;;;;;;1.73;1.73;;;;;;;;;;4895725;29;20426;-72
2023/08/12 01:52:18;;;;;;;2.50;2.40;;;;;;;;;;4895191;29;20497;-73
2023/08/12 01:54:44;;;;;;;2.73;2.60;;;;;;;;;;4895312;28;20430;-71
2023/08/12 01:57:11;;;;;;;9.97;2.40;;;;;;;;;;4895440;28;20429;-73
2023/08/12 01:59:37;;;;;;;2.20;2.10;;;;;;;;;;4895529;28;20465;-71
2023/08/12 02:02:03;;;;;;;2.70;2.57;;;;;;;;;;4895461;29;20465;-72
2023/08/12 02:04:29;;;;;;;3.60;2.60;;;;;;;;;;4895231;28;20533;-69
2023/08/12 02:06:55;;;;;;;2.97;2.87;;;;;;;;;;4895560;29;20433;-68
2023/08/12 02:09:22;;;;;;;7.80;3.27;;;;;;;;;;4895020;28;20460;-68
2023/08/12 02:11:48;;;;;;;5.33;3.00;;;;;;;;;;4895485;28;20496;-72
2023/08/12 02:14:14;;;;;;;2.60;2.60;;;;;;;;;;4895032;29;20421;-71
2023/08/12 02:16:40;;;;;;;3.30;3.20;;;;;;;;;;4895418;28;20461;-73
2023/08/12 02:19:06;;;;;;;3.47;2.63;;;;;;;;;;4895251;28;20520;-73
2023/08/12 02:21:32;;;;;;;4.10;3.10;;;;;;;;;;4895293;28;20437;-72
2023/08/12 02:23:58;;;;;;;2.70;2.60;;;;;;;;;;4894656;28;20918;-72
2023/08/12 02:26:24;;;;;;;4.63;2.83;;;;;;;;;;4895109;28;20560;-73
2023/08/12 02:28:50;;;;;;;3.70;2.77;;;;;;;;;;4895187;28;20501;-73
2023/08/12 02:31:16;;;;;;;14.23;2.80;;;;;;;;;;4895160;28;20620;-71
2023/08/12 02:33:42;;;;;;;7.40;2.50;;;;;;;;;;4894639;29;20449;-73
2023/08/12 02:36:08;;;;;;;2.80;2.70;;;;;;;;;;4895305;29;20433;-72
2023/08/12 02:38:34;;;;;;;2.80;2.63;;;;;;;;;;4894876;28;20420;-71
2023/08/12 02:41:00;;;;;;;3.10;2.83;;;;;;;;;;4895251;28;20509;-69
2023/08/12 02:43:26;;;;;;;4.00;2.33;;;;;;;;;;4894702;28;20488;-71
2023/08/12 02:45:53;;;;;;;3.23;2.77;;;;;;;;;;4894980;28;20433;-71
2023/08/12 02:48:19;;;;;;;8.63;3.27;;;;;;;;;;4895076;28;20496;-69
2023/08/12 02:50:45;;;;;;;8.33;2.60;;;;;;;;;;4897878;29;20480;-69
2023/08/12 02:53:11;;;;;;;4.97;2.70;;;;;;;;;;4897633;28;20414;-68
2023/08/12 02:55:37;;;;;;;2.60;2.50;;;;;;;;;;4898089;28;20449;-68
2023/08/12 02:58:03;;;;;;;4.53;3.23;;;;;;;;;;4898236;28;20425;-70
2023/08/12 03:00:29;;;;;;;2.20;2.20;;;;;;;;;;4896786;29;20421;-72
2023/08/12 03:02:55;;;;;;;3.10;2.77;;;;;;;;;;4897841;28;20452;-68
2023/08/12 03:05:22;;;;;;;5.67;2.90;;;;;;;;;;4898202;29;20418;-71
2023/08/12 03:07:49;;;;;;;14.30;2.70;;;;;;;;;;4897679;28;20859;-70
2023/08/12 03:10:15;;;;;;;2.80;2.60;;;;;;;;;;4897987;28;20924;-68
2023/08/12 03:12:41;;;;;;;2.93;2.73;;;;;;;;;;4897659;28;20572;-67
2023/08/12 03:15:07;;;;;;;3.80;3.57;;;;;;;;;;4898032;28;20542;-69
2023/08/12 03:17:33;;;;;;;3.17;3.00;;;;;;;;;;4897769;28;20968;-68
2023/08/12 03:19:59;;;;;;;3.50;3.30;;;;;;;;;;4897872;28;20475;-70
2023/08/12 03:22:28;;;;;;;2.33;2.33;;;;;;;;;;4897197;28;20434;-70
2023/08/12 03:24:54;;;;;;;8.43;3.37;;;;;;;;;;4897880;28;20449;-72
2023/08/12 03:27:20;;;;;;;3.73;3.43;;;;;;;;;;4897829;28;20428;-72
2023/08/12 03:29:46;;;;;;;7.23;2.93;;;;;;;;;;4897717;28;20417;-72
2023/08/12 03:32:12;;;;;;;9.60;3.93;;;;;;;;;;4897490;28;20968;-72
2023/08/12 03:34:38;;;;;;;3.63;3.43;;;;;;;;;;4897475;29;20930;-72
2023/08/12 03:37:04;;;;;;;3.83;3.73;;;;;;;;;;4897608;28;20814;-72
2023/08/12 03:39:30;;;;;;;4.20;4.00;;;;;;;;;;4897241;28;21157;-71
2023/08/12 03:41:56;;;;;;;7.60;3.30;;;;;;;;;;4896313;29;20430;-70
2023/08/12 03:44:22;;;;;;;2.93;2.83;;;;;;;;;;4897158;28;20988;-69
2023/08/12 03:46:48;;;;;;;6.80;3.93;;;;;;;;;;4897562;28;20457;-70
2023/08/12 03:49:14;;;;;;;3.77;3.57;;;;;;;;;;4897704;28;20426;-70
2023/08/12 03:51:40;;;;;;;4.13;3.30;;;;;;;;;;4896228;29;20486;-69
2023/08/12 03:54:06;;;;;;;4.80;3.30;;;;;;;;;;4896668;28;20426;-72
2023/08/12 03:56:32;;;;;;;3.43;3.23;;;;;;;;;;4897306;29;20469;-70
2023/08/12 03:58:58;;;;;;;3.47;3.33;;;;;;;;;;4897385;28;20429;-71
2023/08/12 04:01:24;;;;;;;3.23;3.00;;;;;;;;;;4897223;28;20434;-72
2023/08/12 04:03:50;;;;;;;3.80;3.60;;;;;;;;;;4896952;29;20944;-72
2023/08/12 04:06:16;;;;;;;4.07;3.63;;;;;;;;;;4897233;28;20449;-71
2023/08/12 04:08:42;;;;;;;4.63;3.47;;;;;;;;;;4896880;28;20448;-70
2023/08/12 04:11:08;;;;;;;3.57;3.27;;;;;;;;;;4897057;28;20484;-73
2023/08/12 04:13:34;;;;;;;3.03;2.90;;;;;;;;;;4896758;28;20430;-71
2023/08/12 04:16:00;;;;;;;2.73;2.53;;;;;;;;;;4897199;28;20416;-72
2023/08/12 04:18:26;;;;;;;3.07;2.80;;;;;;;;;;4896763;29;20477;-72
2023/08/12 04:20:53;;;;;;;4.20;4.00;;;;;;;;;;4896991;28;20433;-71
2023/08/12 04:23:19;;;;;;;4.50;4.20;;;;;;;;;;4896281;28;20430;-68
2023/08/12 04:25:48;;;;;;;4.23;4.13;;;;;;;;;;4896893;28;20444;-72
2023/08/12 04:28:14;;;;;;;3.53;3.43;;;;;;;;;;4896896;28;20426;-73
2023/08/12 04:30:43;;;;;;;3.90;3.70;;;;;;;;;;4896798;29;20461;-70
2023/08/12 04:33:09;;;;;;;7.50;3.57;;;;;;;;;;4896572;29;20536;-69
2023/08/12 04:35:35;;;;;;;4.30;3.90;;;;;;;;;;4895597;29;20997;-68
2023/08/12 04:38:01;;;;;;;3.07;3.00;;;;;;;;;;4896469;28;20927;-68
2023/08/12 04:40:27;;;;;;;3.27;2.97;;;;;;;;;;4896630;28;20422;-68
2023/08/12 04:42:53;;;;;;;2.37;2.37;;;;;;;;;;4896325;28;20464;-69
2023/08/12 04:45:19;;;;;;;4.03;3.80;;;;;;;;;;4896641;29;20422;-67
2023/08/12 04:47:45;;;;;;;3.13;2.77;;;;;;;;;;4896567;29;20430;-67
2023/08/12 04:50:11;;;;;;;4.43;3.20;;;;;;;;;;4896654;28;20472;-67
2023/08/12 04:52:37;;;;;;;5.37;3.47;;;;;;;;;;4895678;28;20480;-67
2023/08/12 04:55:04;;;;;;;3.57;3.37;;;;;;;;;;4896487;28;20457;-66
2023/08/12 04:57:30;;;;;;;2.40;2.40;;;;;;;;;;4896495;28;20426;-67
2023/08/12 04:59:56;;;;;;;3.13;3.00;;;;;;;;;;4896510;28;20430;-67
2023/08/12 05:02:22;;;;;;;3.03;2.93;;;;;;;;;;4895871;28;20430;-67
2023/08/12 05:04:49;;;;;;;3.13;3.03;;;;;;;;;;4895133;28;20488;-67
2023/08/12 05:07:15;;;;;;;4.33;3.60;;;;;;;;;;4895998;28;20438;-67
2023/08/12 05:09:43;;;;;;;3.80;3.47;;;;;;;;;;4896365;29;20426;-67
2023/08/12 05:12:10;;;;;;;3.33;2.87;;;;;;;;;;4894939;28;20493;-66
2023/08/12 05:14:36;;;;;;;4.70;3.43;;;;;;;;;;4895582;28;20441;-70
2023/08/12 05:17:02;;;;;;;7.13;3.50;;;;;;;;;;4896140;28;20425;-69
2023/08/12 05:19:28;;;;;;;3.00;2.90;;;;;;;;;;4895875;28;20474;-69
2023/08/12 05:21:54;;;;;;;3.27;3.17;;;;;;;;;;4895835;28;20442;-68
2023/08/12 05:24:20;;;;;;;4.40;4.23;;;;;;;;;;4895786;29;20434;-72
2023/08/12 05:26:46;;;;;;;4.43;4.23;;;;;;;;;;4896013;28;20426;-70
2023/08/12 05:29:12;;;;;;;3.67;3.50;;;;;;;;;;4896074;29;20429;-73
2023/08/12 05:31:38;;;;;;;4.20;3.53;;;;;;;;;;4895391;28;20548;-70
2023/08/12 05:34:04;;;;;;;7.53;4.73;;;;;;;;;;4895441;29;20449;-67
2023/08/12 05:36:30;;;;;;;3.63;3.20;;;;;;;;;;4895790;28;20446;-72
2023/08/12 05:38:56;;;;;;;3.03;2.93;;;;;;;;;;4894271;29;20430;-70
2023/08/12 05:41:22;;;;;;;4.17;3.87;;;;;;;;;;4895788;29;20984;-67
2023/08/12 05:43:48;;;;;;;7.33;5.27;;;;;;;;;;4895442;28;20797;-66
2023/08/12 05:46:14;;;;;;;6.27;5.67;;;;;;;;;;4895202;28;20781;-68
2023/08/12 05:48:40;;;;;;;4.03;3.87;;;;;;;;;;4894562;28;20984;-67
2023/08/12 05:51:06;;;;;;;4.20;4.00;;;;;;;;;;4895458;28;20820;-70
2023/08/12 05:53:33;;;;;;;7.37;4.57;;;;;;;;;;4895020;28;20785;-71
2023/08/12 05:55:59;;;;;;;6.20;5.07;;;;;;;;;;4895617;28;20433;-67
2023/08/12 05:58:25;;;;;;;5.00;4.60;;;;;;;;;;4894345;28;20565;-68
2023/08/12 06:00:51;;;;;;;3.70;3.50;;;;;;;;;;4895490;28;20433;-67
2023/08/12 06:03:17;;;;;;;4.50;4.20;;;;;;;;;;4895130;28;20409;-67
2023/08/12 06:05:46;;;;;;;5.43;3.80;;;;;;;;;;4895535;28;20956;-67
2023/08/12 06:08:13;;;;;;;3.77;3.40;;;;;;;;;;4894697;28;20484;-69
2023/08/12 06:10:39;;;;;;;5.07;4.10;;;;;;;;;;4895460;28;20475;-73
2023/08/12 06:13:05;;;;;;;7.10;4.30;;;;;;;;;;4894689;28;20457;-70
2023/08/12 06:15:31;;;;;;;3.00;3.00;;;;;;;;;;4895063;28;20649;-72
2023/08/12 06:17:57;;;;;;;4.47;4.10;;;;;;;;;;4895219;28;20520;-72
2023/08/12 06:20:24;;;;;;;4.70;4.40;;;;;;;;;;4895328;28;20434;-72
2023/08/12 06:22:50;;;;;;;4.77;4.47;;;;;;;;;;4894426;28;20906;-68
2023/08/12 06:25:16;;;;;;;4.30;4.00;;;;;;;;;;4893960;28;20453;-67
2023/08/12 06:27:42;;;;;;;3.43;3.23;;;;;;;;;;4894858;28;20431;-68
2023/08/12 06:30:08;;;;;;;3.47;3.27;;;;;;;;;;4895261;29;20417;-70
2023/08/12 06:32:35;;;;;;;5.60;3.10;;;;;;;;;;4894758;28;20477;-70
2023/08/12 06:35:01;;;;;;;3.37;2.93;;;;;;;;;;4894813;28;20938;-68
2023/08/12 06:37:27;;;;;;;4.57;3.50;;;;;;;;;;4894765;29;20484;-68
2023/08/12 06:39:53;;;;;;;3.90;3.03;;;;;;;;;;4895084;28;20932;-70
2023/08/12 06:42:19;;;;;;;4.07;2.97;;;;;;;;;;4894418;28;20534;-73
2023/08/12 06:44:45;;;;;;;4.57;2.80;;;;;;;;;;4895006;29;20426;-71
2023/08/12 06:47:12;;;;;;;3.57;3.37;;;;;;;;;;4894993;28;20918;-69
2023/08/12 06:49:38;;;;;;;2.47;2.47;;;;;;;;;;4894938;28;20437;-67
2023/08/12 06:52:04;;;;;;;4.30;3.17;;;;;;;;;;4894583;28;20872;-69
2023/08/12 06:54:29;;;;;;;4.57;3.40;;;;;;;;;;4894682;28;20520;-68
2023/08/12 06:56:55;;;;;;;3.40;2.80;;;;;;;;;;4893196;29;20504;-68
2023/08/12 06:59:21;;;;;;;3.10;3.00;;;;;;;;;;4894884;29;20433;-69
2023/08/12 07:01:47;;;;;;;3.40;3.30;;;;;;;;;;4893155;28;20446;-69
2023/08/12 07:04:13;;;;;;;4.00;2.80;;;;;;;;;;4894152;28;20938;-69
2023/08/12 07:06:39;;;;;;;4.27;3.07;;;;;;;;;;4893963;28;20532;-67
2023/08/12 07:09:05;;;;;;;2.60;2.60;;;;;;;;;;4890790;29;21320;-67
2023/08/12 07:11:31;;;;;;;7.73;2.70;;;;;;;;;;4893394;28;20524;-72
2023/08/12 07:13:57;;;;;;;2.93;2.80;;;;;;;;;;4893036;28;20914;-70
2023/08/12 07:16:23;;;;;;;3.20;2.80;;;;;;;;;;4894064;28;20962;-73
2023/08/12 07:18:49;;;;;;;2.70;2.60;;;;;;;;;;4894204;28;20918;-69
2023/08/12 07:21:15;;;;;;;2.80;2.70;;;;;;;;;;4894402;28;20448;-70
2023/08/12 07:23:41;;;;;;;6.53;2.90;;;;;;;;;;4892334;28;20212;-66
2023/08/12 07:26:07;;;;;;;4.00;3.03;;;;;;;;;;4892780;29;20521;-67
2023/08/12 07:28:33;;;;;;;2.13;2.13;;;;;;;;;;4894264;28;20865;-67
2023/08/12 07:31:01;;;;;;;2.80;2.70;;;;;;;;;;4894338;28;20481;-67
2023/08/12 07:33:27;;;;;;;2.30;2.17;;;;;;;;;;4893813;28;20244;-69
2023/08/12 07:35:53;;;;;;;2.30;2.20;;;;;;;;;;4895933;29;20442;-68
2023/08/12 07:38:19;;;;;;;2.47;2.27;;;;;;;;;;4896705;28;20428;-67
2023/08/12 07:40:45;;;;;;;2.50;2.30;;;;;;;;;;4897443;28;20432;-69
2023/08/12 07:43:11;;;;;;;3.00;2.80;;;;;;;;;;4896799;28;20425;-68
2023/08/12 07:45:37;;;;;;;2.90;2.80;;;;;;;;;;4897448;28;20422;-71
2023/08/12 07:48:03;;;;;;;2.40;2.37;;;;;;;;;;4896830;28;20471;-67
2023/08/12 07:50:29;;;;;;;2.70;2.60;;;;;;;;;;4897224;28;20776;-69
2023/08/12 07:52:55;;;;;;;2.30;2.20;;;;;;;;;;4896427;29;20910;-71
2023/08/12 07:55:21;;;;;;;2.73;2.53;;;;;;;;;;4897168;28;20469;-68
2023/08/12 07:57:47;;;;;;;7.93;5.10;;;;;;;;;;4895588;29;20188;-69
2023/08/12 08:00:13;;;;;;;2.63;2.53;;;;;;;;;;4896959;29;20422;-69
2023/08/12 08:02:39;;;;;;;2.80;2.60;;;;;;;;;;4909472;29;20880;-68
2023/08/12 08:05:06;;;;;;;5.43;2.70;;;;;;;;;;4903655;28;20512;-68
2023/08/12 08:07:32;;;;;;;3.00;2.90;;;;;;;;;;4896493;28;20425;-69
2023/08/12 08:09:58;;;;;;;3.20;3.00;;;;;;;;;;4896788;28;20429;-69
2023/08/12 08:12:24;;;;;;;2.83;2.73;;;;;;;;;;4896146;28;20493;-69
2023/08/12 08:14:50;;;;;;;3.03;2.93;;;;;;;;;;4895837;28;20434;-68
2023/08/12 08:17:16;;;;;;;3.50;2.67;;;;;;;;;;4896356;29;20847;-67
2023/08/12 08:19:42;;;;;;;2.93;2.83;;;;;;;;;;4897072;28;20783;-67
2023/08/12 08:22:08;;;;;;;2.37;2.37;;;;;;;;;;4895992;28;20430;-67
2023/08/12 08:24:34;;;;;;;3.03;2.93;;;;;;;;;;4894491;28;20438;-69
2023/08/12 08:27:00;;;;;;;3.10;2.90;;;;;;;;;;4895757;28;20449;-69
2023/08/12 08:29:26;;;;;;;2.70;2.60;;;;;;;;;;4895562;28;20469;-67
2023/08/12 08:31:52;;;;;;;8.33;3.87;;;;;;;;;;4896190;28;20496;-68
2023/08/12 08:34:18;;;;;;;4.63;2.77;;;;;;;;;;4895883;28;20433;-62
2023/08/12 08:36:44;;;;;;;3.40;3.10;;;;;;;;;;4895778;28;20481;-68
2023/08/12 08:39:10;;;;;;;2.87;2.80;;;;;;;;;;4896058;28;20469;-67
2023/08/12 08:41:38;;;;;;;3.27;3.07;;;;;;;;;;4895438;28;20452;-68
2023/08/12 08:44:07;;;;;;;14.20;2.97;;;;;;;;;;4895856;28;20430;-68
2023/08/12 08:46:33;;;;;;;5.23;2.90;;;;;;;;;;4894939;28;20460;-67
2023/08/12 08:49:00;;;;;;;3.60;2.93;;;;;;;;;;4896074;28;20440;-67
2023/08/12 08:51:26;;;;;;;2.23;2.23;;;;;;;;;;4895688;28;20492;-68
2023/08/12 08:53:55;;;;;;;2.97;2.77;;;;;;;;;;4895038;28;20457;-67
2023/08/12 08:56:21;;;;;;;2.63;2.43;;;;;;;;;;4895697;29;20533;-67
2023/08/12 08:58:48;;;;;;;2.40;2.23;;;;;;;;;;4895738;28;20434;-67
2023/08/12 09:01:15;;;;;;;8.23;2.27;;;;;;;;;;4895488;28;20437;-67
2023/08/12 09:03:41;;;;;;;2.30;2.10;;;;;;;;;;4894193;28;20445;-67
2023/08/12 09:06:08;;;;;;;2.60;2.50;;;;;;;;;;4893405;28;20433;-67
2023/08/12 09:08:34;;;;;;;3.03;2.83;;;;;;;;;;4894285;28;20445;-67
2023/08/12 09:11:02;;;;;;;1.97;1.87;;;;;;;;;;4894753;29;20476;-67
2023/08/12 09:13:28;;;;;;;2.67;2.47;;;;;;;;;;4893930;28;20529;-68
2023/08/12 09:15:54;;;;;;;4.23;2.67;;;;;;;;;;4894489;28;20440;-68
2023/08/12 09:18:24;;;;;;;4.00;2.70;;;;;;;;;;4895181;28;20969;-68
2023/08/12 09:20:50;;;;;;;3.17;2.80;;;;;;;;;;4895856;28;20438;-68
2023/08/12 09:23:17;;;;;;;2.50;2.50;;;;;;;;;;4895071;28;20469;-68
2023/08/12 09:25:46;;;;;;;6.10;3.67;;;;;;;;;;4895555;29;20433;-71
2023/08/12 09:28:13;;;;;;;3.07;2.97;;;;;;;;;;4895710;28;20532;-69
2023/08/12 09:30:39;;;;;;;4.37;2.67;;;;;;;;;;4895425;28;20492;-67
2023/08/12 09:33:10;;;;;;;2.90;2.80;;;;;;;;;;4895174;28;20441;-69
2023/08/12 09:35:36;;;;;;;2.20;2.20;;;;;;;;;;4895661;29;20437;-68
2023/08/12 09:38:12;;;;;;;2.97;2.83;;;;;;;;;;4895303;29;20448;-68
2023/08/12 09:40:38;;;;;;;2.57;2.47;;;;;;;;;;4895332;29;20556;-67
2023/08/12 09:43:05;;;;;;;2.33;2.23;;;;;;;;;;4895155;28;20550;-67
2023/08/12 09:45:31;;;;;;;2.50;2.40;;;;;;;;;;4894336;28;21014;-67
2023/08/12 09:47:57;;;;;;;2.97;2.93;;;;;;;;;;4895444;28;20437;-67
2023/08/12 09:50:25;;;;;;;5.63;3.00;;;;;;;;;;4895485;28;20422;-67
2023/08/12 09:52:51;;;;;;;2.63;2.43;;;;;;;;;;4893922;28;20949;-67
2023/08/12 09:55:18;;;;;;;2.47;2.47;;;;;;;;;;4895530;28;20430;-67
2023/08/12 09:57:44;;;;;;;2.63;2.50;;;;;;;;;;4908604;28;20434;-66
2023/08/12 10:00:16;;;;;;;4.03;2.80;;;;;;;;;;4895457;28;20437;-66
2023/08/12 10:02:42;;;;;;;2.20;1.90;;;;;;;;;;4894805;28;20417;-66
2023/08/12 10:05:10;;;;;;;4.67;3.00;;;;;;;;;;4886079;28;20437;-66
2023/08/12 10:07:37;;;;;;;2.63;2.50;;;;;;;;;;4894803;28;20443;-67
2023/08/12 10:10:03;;;;;;;2.77;2.67;;;;;;;;;;4895237;28;20429;-67
2023/08/12 10:12:29;;;;;;;2.83;2.20;;;;;;;;;;4894733;28;20580;-68
2023/08/12 10:14:55;;;;;;;2.67;2.47;;;;;;;;;;4894896;28;20425;-68
2023/08/12 10:17:21;;;;;;;3.23;3.03;;;;;;;;;;4894841;28;20437;-67
2023/08/12 10:19:47;;;;;;;2.70;2.60;;;;;;;;;;4900387;28;20504;-67
2023/08/12 10:22:14;;;;;;;4.63;2.87;;;;;;;;;;4894306;28;20454;-67
2023/08/12 10:24:41;;;;;;;2.40;2.30;;;;;;;;;;4895000;28;20907;-67
2023/08/12 10:27:08;;;;;;;2.90;2.80;;;;;;;;;;4894176;28;20450;-67
2023/08/12 10:29:35;;;;;;;3.53;3.20;;;;;;;;;;4894853;28;20536;-69
2023/08/12 10:32:03;;;;;;;2.50;2.40;;;;;;;;;;4895055;29;20966;-68
2023/08/12 10:34:29;;;;;;;3.20;3.00;;;;;;;;;;4894282;29;20428;-67
2023/08/12 10:36:55;;;;;;;18.77;14.47;;;;;;;;;;4884252;29;20450;-67
2023/08/12 10:39:31;;;;;;;10.10;3.67;;;;;;;;;;4894807;29;20757;-65
2023/08/12 10:41:58;;;;;;;5.57;2.80;;;;;;;;;;4894988;28;20508;-64
2023/08/12 10:44:27;;;;;;;4.03;2.97;;;;;;;;;;4894383;29;20414;-65
2023/08/12 10:46:55;;;;;;;2.97;2.73;;;;;;;;;;4893058;28;20429;-67
2023/08/12 10:49:21;;;;;;;4.60;3.00;;;;;;;;;;4893202;28;20440;-67
2023/08/12 10:51:49;;;;;;;5.17;2.50;;;;;;;;;;4894315;28;20577;-67
2023/08/12 10:54:16;;;;;;;2.20;2.10;;;;;;;;;;4893039;28;20520;-67
2023/08/12 10:57:00;;;;;;;4.03;1.90;;;;;;;;;;4894543;28;21005;-67
2023/08/12 10:59:44;;;;;;;2.53;2.43;;;;;;;;;;4894477;28;20947;-68
2023/08/12 11:02:17;;;;;;;1.90;1.87;;;;;;;;;;4875710;28;20508;-68
2023/08/12 11:04:43;;;;;;;3.57;2.30;;;;;;;;;;4876063;28;20788;-67
2023/08/12 11:07:18;;;;;;;3.33;2.40;;;;;;;;;;4875749;28;20919;-68
2023/08/12 11:09:45;;;;;;;2.57;2.20;;;;;;;;;;4876196;28;20501;-68
2023/08/12 11:12:11;;;;;;;2.40;1.93;;;;;;;;;;4879104;28;20482;-67
2023/08/12 11:14:53;;;;;;;2.47;2.37;;;;;;;;;;4879112;28;20423;-67
2023/08/12 11:17:19;;;;;;;4.53;4.10;;;;;;;;;;4894526;29;20449;-69
2023/08/12 11:19:45;;;;;;;6.13;2.30;;;;;;;;;;4894632;28;20446;-68
2023/08/12 11:22:12;;;;;;;8.93;2.43;;;;;;;;;;4889556;28;20944;-68
2023/08/12 11:24:41;;;;;;;2.30;2.20;;;;;;;;;;4883484;28;20479;-69
2023/08/12 11:27:10;;;;;;;2.90;2.70;;;;;;;;;;4888893;29;20464;-68
2023/08/12 11:29:36;;;;;;;2.90;2.70;;;;;;;;;;4897312;28;20452;-69
2023/08/12 11:32:02;;;;;;;9.60;2.30;;;;;;;;;;4897644;28;20481;-70
2023/08/12 11:34:28;;;;;;;2.40;2.30;;;;;;;;;;4896883;28;20417;-71
2023/08/12 11:36:54;;;;;;;3.87;3.57;;;;;;;;;;4896254;28;20809;-71
2023/08/12 11:39:22;;;;;;;2.57;2.47;;;;;;;;;;4896536;28;20536;-70
2023/08/12 11:41:50;;;;;;;3.10;3.00;;;;;;;;;;4897188;29;20461;-71
2023/08/12 11:44:16;;;;;;;3.40;2.57;;;;;;;;;;4896782;28;20422;-70
2023/08/12 11:46:42;;;;;;;5.67;2.10;;;;;;;;;;4896849;28;20434;-71
2023/08/12 11:49:08;;;;;;;2.90;2.80;;;;;;;;;;4896980;29;20568;-70
2023/08/12 11:51:35;;;;;;;2.80;2.77;;;;;;;;;;4896890;29;20481;-66
2023/08/12 11:54:02;;;;;;;2.53;2.43;;;;;;;;;;4896619;28;20680;-67
2023/08/12 11:56:28;;;;;;;3.80;2.40;;;;;;;;;;4895685;29;20520;-67
2023/08/12 11:58:54;;;;;;;3.40;2.00;;;;;;;;;;4896411;28;20585;-67
2023/08/12 12:01:21;;;;;;;3.70;2.43;;;;;;;;;;4897084;29;20438;-66
2023/08/12 12:03:51;;;;;;;1.70;1.70;;;;;;;;;;4896428;28;20501;-71
2023/08/12 12:06:17;;;;;;;2.50;2.50;;;;;;;;;;4896945;28;20421;-70
2023/08/12 12:08:44;;;;;;;4.30;2.50;;;;;;;;;;4896390;28;20430;-69
2023/08/12 12:11:11;;;;;;;2.47;2.37;;;;;;;;;;4896727;28;20560;-71
2023/08/12 12:13:36;;;;;;;17.03;2.33;;;;;;;;;;4895115;28;20446;-72
2023/08/12 12:16:03;;;;;;;2.37;2.23;;;;;;;;;;4951807;28;20432;-68
2023/08/12 12:18:29;;;;;;;2.57;2.47;;;;;;;;;;4896405;28;20479;-69
2023/08/12 12:20:58;;;;;;;3.10;2.90;;;;;;;;;;4895675;28;20436;-66
2023/08/12 12:23:31;;;;;;;3.43;3.23;;;;;;;;;;4894865;28;20525;-66
2023/08/12 12:25:58;;;;;;;4.07;2.37;;;;;;;;;;4896778;28;20465;-66
2023/08/12 12:28:24;;;;;;;5.30;2.10;;;;;;;;;;4896324;28;20458;-67
2023/08/12 12:30:49;;;;;;;3.07;2.70;;;;;;;;;;4896671;28;20426;-66
2023/08/12 12:33:15;;;;;;;2.47;2.37;;;;;;;;;;4895965;28;20452;-67
2023/08/12 12:35:41;;;;;;;3.27;2.30;;;;;;;;;;4896527;28;20432;-67
2023/08/12 12:38:07;;;;;;;2.13;1.97;;;;;;;;;;4896213;28;20433;-66
2023/08/12 12:40:33;;;;;;;3.60;2.17;;;;;;;;;;4896426;29;20441;-67
2023/08/12 12:42:59;;;;;;;2.40;2.20;;;;;;;;;;4895962;28;20442;-67
2023/08/12 12:45:25;;;;;;;6.30;2.10;;;;;;;;;;4896648;28;20425;-67
2023/08/12 12:47:51;;;;;;;3.23;3.00;;;;;;;;;;4896087;28;20437;-67
2023/08/12 12:50:17;;;;;;;6.37;2.43;;;;;;;;;;4896121;28;20426;-67
2023/08/12 12:52:44;;;;;;;2.47;2.37;;;;;;;;;;4895335;28;20493;-66
2023/08/12 12:55:10;;;;;;;2.50;2.30;;;;;;;;;;4896491;28;20511;-67
2023/08/12 12:57:36;;;;;;;2.37;2.37;;;;;;;;;;4896213;29;20457;-66
2023/08/12 13:00:04;;;;;;;2.70;2.60;;;;;;;;;;4894243;28;20444;-67
2023/08/12 13:02:30;;;;;;;2.47;2.27;;;;;;;;;;4895374;28;20938;-71
2023/08/12 13:04:55;;;;;;;6.33;2.43;;;;;;;;;;4895667;28;20447;-67
2023/08/12 13:07:22;;;;;;;4.10;2.30;;;;;;;;;;4895549;28;20434;-68
2023/08/12 13:09:48;;;;;;;3.53;2.40;;;;;;;;;;4896005;28;20433;-69
2023/08/12 13:12:14;;;;;;;7.73;2.27;;;;;;;;;;4905196;29;20491;-68
2023/08/12 13:14:40;;;;;;;4.10;2.60;;;;;;;;;;4895505;28;20444;-70
2023/08/12 13:17:06;;;;;;;2.43;2.33;;;;;;;;;;4895972;28;20492;-66
2023/08/12 13:19:32;;;;;;;2.20;2.20;;;;;;;;;;4895650;28;20876;-66
2023/08/12 13:21:58;;;;;;;3.73;3.40;;;;;;;;;;4894975;28;20533;-68
2023/08/12 13:24:24;;;;;;;2.20;2.10;;;;;;;;;;4895379;29;20421;-67
2023/08/12 13:26:52;;;;;;;2.50;2.40;;;;;;;;;;4895771;28;20426;-67
2023/08/12 13:29:18;;;;;;;2.67;2.57;;;;;;;;;;4894289;28;20430;-68
2023/08/12 13:31:44;;;;;;;2.17;2.00;;;;;;;;;;4895673;28;20836;-67
2023/08/12 13:34:10;;;;;;;3.43;2.40;;;;;;;;;;4894640;29;20564;-69
2023/08/12 13:36:36;;;;;;;2.67;2.67;;;;;;;;;;4895316;28;20788;-68
2023/08/12 13:39:02;;;;;;;3.23;2.77;;;;;;;;;;4895237;28;20433;-66
2023/08/12 13:41:28;;;;;;;4.83;2.73;;;;;;;;;;4895815;28;20976;-67
2023/08/12 13:43:54;;;;;;;3.20;2.90;;;;;;;;;;4893542;28;20438;-69
2023/08/12 13:46:20;;;;;;;5.70;2.93;;;;;;;;;;4895693;28;20513;-67
2023/08/12 13:48:46;;;;;;;2.60;2.37;;;;;;;;;;4895148;28;20190;-69
2023/08/12 13:51:12;;;;;;;3.00;3.00;;;;;;;;;;4895186;28;20489;-69
2023/08/12 13:53:38;;;;;;;3.10;3.00;;;;;;;;;;4894495;28;20452;-67
2023/08/12 13:56:04;;;;;;;3.40;3.20;;;;;;;;;;4893940;28;20445;-67
2023/08/12 13:58:30;;;;;;;3.43;3.23;;;;;;;;;;4894823;29;20485;-66
2023/08/12 14:00:56;;;;;;;2.80;2.80;;;;;;;;;;4894282;29;20430;-67
2023/08/12 14:03:22;;;;;;;2.97;2.97;;;;;;;;;;4894310;29;20446;-67
2023/08/12 14:05:47;;;;;;;8.43;3.63;;;;;;;;;;4894853;28;20430;-67
2023/08/12 14:08:13;;;;;;;3.87;3.40;;;;;;;;;;4895292;28;20926;-66
2023/08/12 14:10:40;;;;;;;3.00;2.77;;;;;;;;;;4895316;28;20977;-66
2023/08/12 14:13:06;;;;;;;3.00;2.80;;;;;;;;;;4895097;28;20504;-66
2023/08/12 14:15:32;;;;;;;5.80;2.90;;;;;;;;;;4895496;29;20426;-67
2023/08/12 14:17:58;;;;;;;21.23;3.40;;;;;;;;;;4894970;28;20485;-66
2023/08/12 14:20:24;;;;;;;3.90;2.77;;;;;;;;;;4895004;28;20449;-66
2023/08/12 14:22:50;;;;;;;3.20;3.03;;;;;;;;;;4894531;28;20800;-67
2023/08/12 14:25:16;;;;;;;2.50;2.40;;;;;;;;;;4895353;28;20909;-66
2023/08/12 14:27:42;;;;;;;4.97;2.80;;;;;;;;;;4895362;28;20906;-66
2023/08/12 14:30:08;;;;;;;3.63;3.33;;;;;;;;;;4895208;28;20509;-67
2023/08/12 14:32:34;;;;;;;3.50;2.87;;;;;;;;;;4894743;28;20508;-67
2023/08/12 14:35:00;;;;;;;2.93;2.80;;;;;;;;;;4895109;29;20902;-67
2023/08/12 14:37:27;;;;;;;3.73;3.00;;;;;;;;;;4894660;28;20838;-67
2023/08/12 14:39:53;;;;;;;3.13;3.03;;;;;;;;;;4895152;28;20178;-66